createdAt,value
2022-09-01T00:00:49.338Z,99795.22
2022-09-01T00:03:36.093Z,99800.12
2022-09-01T00:06:24.388Z,99803.81
2022-09-01T00:09:17.675Z,99801.25
2022-09-01T00:12:05.363Z,99809.31
2022-09-01T00:14:52.216Z,99816.75
2022-09-01T00:17:38.400Z,99820.16
2022-09-01T00:20:25.268Z,99821.03
2022-09-01T00:23:11.702Z,99825.75
2022-09-01T00:25:58.229Z,99822.06
2022-09-01T00:28:44.069Z,99827.75
2022-09-01T00:31:30.651Z,99821.75
2022-09-01T00:34:17.379Z,99825.28
2022-09-01T00:37:04.200Z,99833.00
2022-09-01T00:39:50.329Z,99824.25
2022-09-01T00:42:36.607Z,99833.81
2022-09-01T00:45:23.134Z,99822.22
2022-09-01T00:48:10.043Z,99820.97
2022-09-01T00:50:57.661Z,99836.56
2022-09-01T00:53:45.777Z,99827.69
2022-09-01T00:56:32.802Z,99829.78
2022-09-01T00:59:21.442Z,99837.16
2022-09-01T01:02:07.412Z,99840.13
2022-09-01T01:04:56.187Z,99839.06
2022-09-01T01:07:47.289Z,99840.37
2022-09-01T01:10:37.654Z,99836.31
2022-09-01T01:13:27.609Z,99834.37
2022-09-01T01:16:15.961Z,99826.53
2022-09-01T01:19:01.967Z,99834.75
2022-09-01T01:22:06.910Z,99828.25
2022-09-01T01:24:53.386Z,99832.53
2022-09-01T01:27:43.135Z,99837.94
2022-09-01T01:30:33.807Z,99837.88
2022-09-01T01:33:26.482Z,99834.53
2022-09-01T01:36:16.484Z,99822.44
2022-09-01T01:39:06.192Z,99835.06
2022-09-01T01:41:54.897Z,99836.59
2022-09-01T01:44:43.148Z,99826.69
2022-09-01T01:47:29.748Z,99832.19
2022-09-01T01:50:16.795Z,99826.50
2022-09-01T01:53:11.397Z,99817.56
2022-09-01T01:55:59.025Z,99812.81
2022-09-01T01:58:47.444Z,99815.50
2022-09-01T02:01:35.084Z,99810.44
2022-09-01T02:04:22.577Z,99793.22
2022-09-01T02:07:12.698Z,99791.47
2022-09-01T02:09:59.630Z,99788.41
2022-09-01T02:12:46.393Z,99787.72
2022-09-01T02:15:43.714Z,99793.19
2022-09-01T02:18:37.228Z,99794.53
2022-09-01T02:21:25.247Z,99794.94
2022-09-01T02:24:12.882Z,99795.75
2022-09-01T02:27:00.606Z,99799.75
2022-09-01T02:29:47.568Z,99804.63
2022-09-01T02:32:34.252Z,99798.66
2022-09-01T02:35:20.807Z,99805.47
2022-09-01T02:38:08.780Z,99791.78
2022-09-01T02:40:56.748Z,99779.72
2022-09-01T02:43:46.316Z,99772.22
2022-09-01T02:46:32.586Z,99782.25
2022-09-01T02:49:24.834Z,99789.72
2022-09-01T02:52:11.247Z,99794.38
2022-09-01T02:54:57.836Z,99782.38
2022-09-01T02:57:46.239Z,99769.94
2022-09-01T03:00:37.506Z,99769.94
2022-09-01T03:03:24.511Z,99773.81
2022-09-01T03:06:12.892Z,99764.50
2022-09-01T03:09:00.386Z,99764.63
2022-09-01T03:11:50.659Z,99757.37
2022-09-01T03:14:36.585Z,99753.97
2022-09-01T03:17:22.860Z,99763.25
2022-09-01T03:20:09.972Z,99782.94
2022-09-01T03:22:57.972Z,99784.06
2022-09-01T03:25:45.643Z,99790.44
2022-09-01T03:28:32.148Z,99789.31
2022-09-01T03:31:20.244Z,99797.94
2022-09-01T03:34:08.091Z,99800.63
2022-09-01T03:36:55.900Z,99788.19
2022-09-01T03:39:43.326Z,99784.66
2022-09-01T03:42:29.689Z,99785.28
2022-09-01T03:45:19.392Z,99770.25
2022-09-01T03:48:09.056Z,99771.53
2022-09-01T03:50:56.950Z,99768.91
2022-09-01T03:53:44.389Z,99774.63
2022-09-01T03:56:30.824Z,99765.88
2022-09-01T03:59:17.557Z,99763.25
2022-09-01T04:02:04.263Z,99763.03
2022-09-01T04:04:50.489Z,99759.31
2022-09-01T04:07:39.076Z,99756.00
2022-09-01T04:10:26.632Z,99757.03
2022-09-01T04:13:13.103Z,99762.78
2022-09-01T04:16:01.951Z,99765.97
2022-09-01T04:18:50.615Z,99761.84
2022-09-01T04:21:39.030Z,99757.53
2022-09-01T04:24:28.476Z,99748.97
2022-09-01T04:27:18.178Z,99745.66
2022-09-01T04:30:04.849Z,99741.63
2022-09-01T04:32:56.833Z,99753.09
2022-09-01T04:35:43.331Z,99762.56
2022-09-01T04:38:30.628Z,99770.63
2022-09-01T04:41:17.789Z,99772.91
2022-09-01T04:44:05.948Z,99768.53
2022-09-01T04:46:52.439Z,99771.06
2022-09-01T04:49:38.591Z,99777.41
2022-09-01T04:52:25.685Z,99769.09
2022-09-01T04:55:19.117Z,99764.06
2022-09-01T04:58:10.064Z,99769.28
2022-09-01T05:00:56.903Z,99769.19
2022-09-01T05:03:43.176Z,99771.41
2022-09-01T05:06:33.993Z,99776.41
2022-09-01T05:09:20.538Z,99781.88
2022-09-01T05:12:15.857Z,99786.91
2022-09-01T05:15:06.501Z,99798.47
2022-09-01T05:17:54.734Z,99791.12
2022-09-01T05:20:42.685Z,99790.22
2022-09-01T05:23:30.800Z,99786.06
2022-09-01T05:26:20.197Z,99789.88
2022-09-01T05:29:13.384Z,99778.81
2022-09-01T05:32:00.468Z,99785.16
2022-09-01T05:34:47.613Z,99786.41
2022-09-01T05:37:41.992Z,99797.19
2022-09-01T05:40:28.427Z,99792.06
2022-09-01T05:43:14.943Z,99791.12
2022-09-01T05:46:06.985Z,99788.59
2022-09-01T05:48:54.942Z,99805.75
2022-09-01T05:51:50.867Z,99801.34
2022-09-01T05:54:38.073Z,99799.06
2022-09-01T05:57:34.439Z,99798.66
2022-09-01T06:00:21.193Z,99803.81
2022-09-01T06:03:09.496Z,99794.91
2022-09-01T06:06:03.842Z,99787.44
2022-09-01T06:08:51.557Z,99786.41
2022-09-01T06:11:38.415Z,99788.97
2022-09-01T06:14:24.910Z,99782.06
2022-09-01T06:17:11.927Z,99791.03
2022-09-01T06:19:58.541Z,99793.38
2022-09-01T06:22:45.445Z,99806.94
2022-09-01T06:25:32.718Z,99802.50
2022-09-01T06:28:21.301Z,99800.63
2022-09-01T06:31:09.611Z,99804.47
2022-09-01T06:33:55.912Z,99809.94
2022-09-01T06:36:43.050Z,99811.19
2022-09-01T06:39:29.539Z,99817.75
2022-09-01T06:42:17.472Z,99815.91
2022-09-01T06:45:10.314Z,99816.84
2022-09-01T06:47:57.705Z,99827.53
2022-09-01T06:53:59.592Z,99822.81
2022-09-01T06:59:54.645Z,99815.31
2022-09-01T07:02:41.500Z,99821.78
2022-09-01T07:18:00.222Z,99840.19
2022-09-01T07:24:13.473Z,99840.44
2022-09-01T07:27:07.692Z,99844.12
2022-09-01T07:29:57.105Z,99842.91
2022-09-01T07:32:47.805Z,99846.19
2022-09-01T07:35:38.041Z,99854.06
2022-09-01T07:39:57.604Z,99814.06
2022-09-01T07:44:44.134Z,99852.34
2022-09-01T07:53:54.705Z,99838.34
2022-09-01T07:56:41.231Z,99841.31
2022-09-01T07:59:29.510Z,99847.53
2022-09-01T08:02:18.485Z,99837.78
2022-09-01T08:05:09.562Z,99839.00
2022-09-01T08:07:56.731Z,99841.34
2022-09-01T08:10:45.824Z,99843.81
2022-09-01T08:13:38.824Z,99842.97
2022-09-01T08:16:39.441Z,99837.00
2022-09-01T08:19:27.417Z,99846.56
2022-09-01T08:22:17.174Z,99856.22
2022-09-01T08:25:08.268Z,99847.94
2022-09-01T08:28:01.152Z,99848.78
2022-09-01T08:30:52.357Z,99852.38
2022-09-01T08:33:41.078Z,99855.66
2022-09-01T08:36:27.444Z,99860.94
2022-09-01T08:39:13.855Z,99856.59
2022-09-01T08:42:06.542Z,99860.12
2022-09-01T08:44:58.441Z,99859.03
2022-09-01T08:48:22.081Z,99866.28
2022-09-01T08:51:20.745Z,99868.84
2022-09-01T08:54:57.751Z,99863.91
2022-09-01T08:57:46.111Z,99851.41
2022-09-01T09:00:46.646Z,99866.38
2022-09-01T09:03:49.522Z,99862.97
2022-09-01T09:07:02.191Z,99861.72
2022-09-01T09:10:04.153Z,99874.00
2022-09-01T09:13:08.218Z,99872.84
2022-09-01T09:16:07.754Z,99872.06
2022-09-01T09:18:59.738Z,99866.88
2022-09-01T09:21:48.258Z,99858.22
2022-09-01T09:24:47.321Z,99863.75
2022-09-01T09:27:42.383Z,99849.06
2022-09-01T09:30:33.027Z,99843.31
2022-09-01T09:33:53.584Z,99838.03
2022-09-01T09:36:41.715Z,99834.72
2022-09-01T09:39:29.479Z,99835.00
2022-09-01T09:42:16.177Z,99830.78
2022-09-01T09:45:04.174Z,99832.25
2022-09-01T09:47:50.938Z,99837.31
2022-09-01T09:50:43.213Z,99824.59
2022-09-01T09:53:32.861Z,99828.69
2022-09-01T09:56:24.301Z,99831.31
2022-09-01T09:59:53.696Z,99821.31
2022-09-01T10:02:42.945Z,99828.06
2022-09-01T10:05:51.568Z,99830.94
2022-09-01T10:08:45.498Z,99830.97
2022-09-01T10:11:43.541Z,99825.25
2022-09-01T10:14:53.376Z,99826.59
2022-09-01T10:17:43.677Z,99825.06
2022-09-01T10:20:30.276Z,99816.41
2022-09-01T10:23:18.452Z,99827.19
2022-09-01T10:26:22.666Z,99821.75
2022-09-01T10:29:25.626Z,99811.75
2022-09-01T10:32:34.720Z,99818.59
2022-09-01T10:35:30.266Z,99810.13
2022-09-01T10:38:25.674Z,99799.97
2022-09-01T10:41:41.206Z,99802.03
2022-09-01T10:44:36.493Z,99798.62
2022-09-01T10:47:33.733Z,99808.50
2022-09-01T10:50:35.481Z,99804.50
2022-09-01T10:53:37.565Z,99806.47
2022-09-01T10:56:51.156Z,99799.16
2022-09-01T10:59:43.447Z,99791.44
2022-09-01T11:02:35.976Z,99796.91
2022-09-01T11:05:22.571Z,99795.37
2022-09-01T11:08:27.526Z,99792.25
2022-09-01T11:11:55.086Z,99796.00
2022-09-01T11:14:49.026Z,99801.69
2022-09-01T11:17:59.821Z,99795.34
2022-09-01T11:20:47.045Z,99783.09
2022-09-01T11:23:34.499Z,99792.50
2022-09-01T11:26:32.826Z,99787.19
2022-09-01T11:29:55.778Z,99785.84
2022-09-01T11:32:46.726Z,99783.50
2022-09-01T11:35:33.569Z,99782.22
2022-09-01T11:38:21.444Z,99785.16
2022-09-01T11:41:07.970Z,99781.06
2022-09-01T11:43:57.937Z,99783.12
2022-09-01T11:46:45.368Z,99776.84
2022-09-01T11:49:36.172Z,99773.97
2022-09-01T11:52:25.955Z,99776.62
2022-09-01T11:55:11.966Z,99773.88
2022-09-01T11:57:58.359Z,99770.56
2022-09-01T12:00:44.669Z,99763.25
2022-09-01T12:03:31.092Z,99764.06
2022-09-01T12:06:26.972Z,99757.25
2022-09-01T12:09:13.484Z,99764.06
2022-09-01T12:12:01.121Z,99747.66
2022-09-01T12:15:05.830Z,99759.09
2022-09-01T12:17:54.072Z,99747.25
2022-09-01T12:20:41.312Z,99755.94
2022-09-01T12:23:40.247Z,99746.44
2022-09-01T12:26:29.215Z,99748.47
2022-09-01T12:29:16.769Z,99745.97
2022-09-01T12:32:04.487Z,99756.06
2022-09-01T12:35:09.304Z,99760.84
2022-09-01T12:38:36.586Z,99750.50
2022-09-01T12:41:31.902Z,99746.38
2022-09-01T12:44:34.674Z,99749.59
2022-09-01T12:47:36.622Z,99735.63
2022-09-01T12:50:22.783Z,99734.87
2022-09-01T12:53:15.726Z,99740.84
2022-09-01T12:56:16.987Z,99731.25
2022-09-01T12:59:15.785Z,99733.66
2022-09-01T13:02:36.836Z,99731.25
2022-09-01T13:05:34.576Z,99735.25
2022-09-01T13:08:27.106Z,99744.78
2022-09-01T13:11:15.798Z,99744.84
2022-09-01T13:14:02.246Z,99733.63
2022-09-01T13:16:48.785Z,99738.44
2022-09-01T13:19:35.207Z,99740.66
2022-09-01T13:22:21.697Z,99736.91
2022-09-01T13:25:10.875Z,99734.66
2022-09-01T13:27:57.362Z,99737.47
2022-09-01T13:31:28.742Z,99737.22
2022-09-01T13:34:22.651Z,99738.41
2022-09-01T13:37:07.300Z,99730.72
2022-09-01T13:39:53.776Z,99737.91
2022-09-01T13:42:40.220Z,99741.56
2022-09-01T13:45:26.740Z,99744.81
2022-09-01T13:48:17.123Z,99742.66
2022-09-01T13:51:19.204Z,99736.97
2022-09-01T13:54:05.776Z,99732.78
2022-09-01T13:56:52.437Z,99732.84
2022-09-01T13:59:39.108Z,99739.59
2022-09-01T14:02:26.371Z,99743.66
2022-09-01T14:05:13.315Z,99739.88
2022-09-01T14:08:00.580Z,99747.94
2022-09-01T14:10:50.841Z,99746.72
2022-09-01T14:13:37.994Z,99747.63
2022-09-01T14:16:24.642Z,99750.84
2022-09-01T14:19:12.176Z,99743.63
2022-09-01T14:21:58.734Z,99738.66
2022-09-01T14:24:45.174Z,99739.78
2022-09-01T14:27:31.535Z,99740.53
2022-09-01T14:30:20.668Z,99736.31
2022-09-01T14:33:07.963Z,99737.25
2022-09-01T14:35:54.366Z,99737.69
2022-09-01T14:38:40.631Z,99733.13
2022-09-01T14:41:27.321Z,99742.47
2022-09-01T14:44:14.020Z,99735.28
2022-09-01T14:47:00.830Z,99739.66
2022-09-01T14:49:47.566Z,99742.94
2022-09-01T14:52:34.435Z,99750.34
2022-09-01T14:55:25.525Z,99739.75
2022-09-01T14:58:11.618Z,99742.03
2022-09-01T15:01:07.517Z,99755.13
2022-09-01T15:04:05.105Z,99736.59
2022-09-01T15:06:51.405Z,99745.69
2022-09-01T15:09:37.734Z,99745.25
2022-09-01T15:12:24.892Z,99740.94
2022-09-01T15:15:11.209Z,99746.06
2022-09-01T15:17:59.761Z,99747.94
2022-09-01T15:20:45.897Z,99735.78
2022-09-01T15:23:32.396Z,99756.16
2022-09-01T15:26:18.611Z,99742.63
2022-09-01T15:29:05.278Z,99742.69
2022-09-01T15:31:51.676Z,99745.84
2022-09-01T15:34:38.193Z,99744.81
2022-09-01T15:37:24.291Z,99744.22
2022-09-01T15:40:10.982Z,99745.41
2022-09-01T15:42:57.645Z,99744.63
2022-09-01T15:45:46.446Z,99743.19
2022-09-01T15:48:33.445Z,99749.22
2022-09-01T15:51:23.019Z,99743.59
2022-09-01T15:54:19.890Z,99747.75
2022-09-01T15:57:06.612Z,99748.47
2022-09-01T15:59:55.149Z,99749.50
2022-09-01T16:02:41.974Z,99754.81
2022-09-01T16:05:30.307Z,99753.62
2022-09-01T16:08:16.598Z,99762.03
2022-09-01T16:11:09.745Z,99767.72
2022-09-01T16:13:56.161Z,99755.88
2022-09-01T16:16:49.238Z,99756.81
2022-09-01T16:19:39.346Z,99753.81
2022-09-01T16:22:28.686Z,99756.06
2022-09-01T16:25:19.028Z,99752.78
2022-09-01T16:28:20.953Z,99754.28
2022-09-01T16:31:18.147Z,99754.31
2022-09-01T16:34:17.224Z,99744.78
2022-09-01T16:37:13.809Z,99756.44
2022-09-01T16:40:35.435Z,99753.19
2022-09-01T16:43:32.725Z,99754.41
2022-09-01T16:46:23.449Z,99754.41
2022-09-01T16:49:34.070Z,99755.91
2022-09-01T16:52:24.438Z,99757.47
2022-09-01T16:55:31.016Z,99752.19
2022-09-01T16:58:24.870Z,99758.38
2022-09-01T17:01:49.599Z,99758.84
2022-09-01T17:04:48.365Z,99761.66
2022-09-01T17:08:06.070Z,99761.56
2022-09-01T17:11:11.039Z,99770.41
2022-09-01T17:13:58.169Z,99765.47
2022-09-01T17:16:45.244Z,99758.63
2022-09-01T17:19:31.929Z,99764.37
2022-09-01T17:22:19.745Z,99769.88
2022-09-01T17:25:10.028Z,99763.13
2022-09-01T17:28:08.612Z,99771.09
2022-09-01T17:31:14.284Z,99773.25
2022-09-01T17:34:19.529Z,99771.16
2022-09-01T17:37:32.439Z,99774.72
2022-09-01T17:40:26.181Z,99777.97
2022-09-01T17:43:19.337Z,99781.53
2022-09-01T17:46:08.417Z,99781.97
2022-09-01T17:49:21.861Z,99781.22
2022-09-01T17:52:36.425Z,99794.28
2022-09-01T17:55:41.511Z,99794.63
2022-09-01T17:58:40.464Z,99794.50
2022-09-01T18:01:54.947Z,99805.63
2022-09-01T18:05:03.091Z,99808.69
2022-09-01T18:08:07.134Z,99812.66
2022-09-01T18:11:01.647Z,99816.47
2022-09-01T18:14:00.350Z,99820.56
2022-09-01T18:17:10.916Z,99815.72
2022-09-01T18:20:09.041Z,99833.53
2022-09-01T18:23:05.628Z,99833.44
2022-09-01T18:26:17.831Z,99843.66
2022-09-01T18:29:06.685Z,99834.37
2022-09-01T18:32:09.000Z,99848.22
2022-09-01T18:35:20.367Z,99837.31
2022-09-01T18:38:09.891Z,99842.06
2022-09-01T18:41:02.384Z,99844.31
2022-09-01T18:44:04.260Z,99840.56
2022-09-01T18:46:54.228Z,99842.72
2022-09-01T18:49:47.306Z,99846.34
2022-09-01T18:53:05.163Z,99845.78
2022-09-01T18:56:06.951Z,99847.22
2022-09-01T18:59:04.666Z,99854.31
2022-09-01T19:02:00.364Z,99851.09
2022-09-01T19:04:51.049Z,99856.00
2022-09-01T19:07:48.631Z,99855.84
2022-09-01T19:11:07.370Z,99860.25
2022-09-01T19:14:03.200Z,99856.00
2022-09-01T19:16:56.047Z,99854.38
2022-09-01T19:19:52.240Z,99853.56
2022-09-01T19:23:16.343Z,99857.41
2022-09-01T19:26:06.253Z,99855.25
2022-09-01T19:29:01.938Z,99858.28
2022-09-01T19:31:50.790Z,99855.38
2022-09-01T19:34:43.701Z,99860.56
2022-09-01T19:37:31.632Z,99875.22
2022-09-01T19:40:25.132Z,99864.69
2022-09-01T19:43:17.704Z,99868.69
2022-09-01T19:46:12.428Z,99877.63
2022-09-01T19:49:17.224Z,99870.59
2022-09-01T19:52:15.910Z,99870.53
2022-09-01T19:55:07.858Z,99862.63
2022-09-01T19:57:56.882Z,99870.81
2022-09-01T20:00:52.621Z,99872.09
2022-09-01T20:03:49.392Z,99870.28
2022-09-01T20:06:42.882Z,99886.94
2022-09-01T20:10:11.210Z,99877.50
2022-09-01T20:13:32.550Z,99880.91
2022-09-01T20:16:43.043Z,99885.44
2022-09-01T20:19:30.045Z,99889.16
2022-09-01T20:22:31.341Z,99890.31
2022-09-01T20:25:24.401Z,99888.91
2022-09-01T20:28:29.587Z,99900.50
2022-09-01T20:31:25.077Z,99896.66
2022-09-01T20:34:37.286Z,99897.66
2022-09-01T20:37:46.555Z,99902.81
2022-09-01T20:40:40.349Z,99903.34
2022-09-01T20:43:29.807Z,99908.75
2022-09-01T20:46:20.519Z,99907.84
2022-09-01T20:49:06.561Z,99910.00
2022-09-01T20:52:00.261Z,99907.06
2022-09-01T20:54:52.190Z,99908.38
2022-09-01T20:57:50.037Z,99918.53
2022-09-01T21:00:45.277Z,99907.94
2022-09-01T21:03:56.537Z,99908.91
2022-09-01T21:07:05.397Z,99923.31
2022-09-01T21:10:16.849Z,99926.53
2022-09-01T21:13:25.124Z,99923.25
2022-09-01T21:16:37.782Z,99928.38
2022-09-01T21:19:30.171Z,99932.91
2022-09-01T21:22:21.664Z,99941.97
2022-09-01T21:25:08.345Z,99941.66
2022-09-01T21:27:56.972Z,99943.81
2022-09-01T21:30:43.344Z,99947.03
2022-09-01T21:33:31.951Z,99950.78
2022-09-01T21:36:18.125Z,99959.53
2022-09-01T21:39:04.406Z,99959.22
2022-09-01T21:41:50.640Z,99956.69
2022-09-01T21:44:37.139Z,99952.09
2022-09-01T21:47:24.010Z,99963.22
2022-09-01T21:50:11.734Z,99950.19
2022-09-01T21:52:58.170Z,99949.47
2022-09-01T21:55:45.163Z,99950.44
2022-09-01T21:58:31.398Z,99944.97
2022-09-01T22:01:17.698Z,99950.44
2022-09-01T22:04:05.039Z,99938.69
2022-09-01T22:06:51.521Z,99930.63
2022-09-01T22:09:38.156Z,99925.97
2022-09-01T22:12:24.621Z,99926.91
2022-09-01T22:15:14.288Z,99920.88
2022-09-01T22:18:00.304Z,99929.94
2022-09-01T22:20:46.776Z,99925.28
2022-09-01T22:23:33.243Z,99912.69
2022-09-01T22:26:28.619Z,99910.53
2022-09-01T22:29:14.764Z,99913.31
2022-09-01T22:32:01.223Z,99905.00
2022-09-01T22:34:47.521Z,99910.34
2022-09-01T22:37:34.029Z,99901.06
2022-09-01T22:40:20.317Z,99898.56
2022-09-01T22:43:07.132Z,99902.25
2022-09-01T22:45:54.178Z,99899.81
2022-09-01T22:48:40.810Z,99899.97
2022-09-01T22:51:27.688Z,99899.41
2022-09-01T22:54:14.051Z,99897.81
2022-09-01T22:57:02.248Z,99895.94
2022-09-01T22:59:49.112Z,99902.19
2022-09-01T23:02:36.155Z,99896.75
2022-09-01T23:05:23.305Z,99886.00
2022-09-01T23:08:09.765Z,99891.19
2022-09-01T23:10:56.447Z,99885.47
2022-09-01T23:13:43.329Z,99882.06
2022-09-01T23:16:30.129Z,99885.44
2022-09-01T23:19:15.997Z,99893.87
2022-09-01T23:22:03.245Z,99885.34
2022-09-01T23:24:49.387Z,99888.41
2022-09-01T23:27:36.028Z,99884.59
2022-09-01T23:30:22.386Z,99882.22
2022-09-01T23:33:09.178Z,99878.41
2022-09-01T23:35:56.790Z,99881.00
2022-09-01T23:38:43.337Z,99873.22
2022-09-01T23:41:31.914Z,99882.19
2022-09-01T23:44:18.232Z,99876.84
2022-09-01T23:47:04.757Z,99893.28
2022-09-01T23:49:51.581Z,99888.44
2022-09-01T23:52:38.035Z,99889.34
2022-09-01T23:55:24.267Z,99885.31
2022-09-01T23:58:10.858Z,99885.75
